createdAt,value
2023-10-29T00:00:39.114Z,99633.44
2023-10-29T00:01:46.654Z,99637.84
2023-10-29T00:02:48.546Z,99634.34
2023-10-29T00:03:53.198Z,99638.63
2023-10-29T00:04:55.950Z,99627.31
2023-10-29T00:05:57.663Z,99628.22
2023-10-29T00:06:59.323Z,99630.00
2023-10-29T00:08:00.996Z,99625.59
2023-10-29T00:09:02.770Z,99624.69
2023-10-29T00:10:05.172Z,99618.56
2023-10-29T00:11:06.773Z,99617.69
2023-10-29T00:12:08.521Z,99618.56
2023-10-29T00:13:10.187Z,99619.47
2023-10-29T00:14:12.622Z,99618.59
2023-10-29T00:15:14.471Z,99622.97
2023-10-29T00:16:16.261Z,99622.13
2023-10-29T00:17:18.142Z,99627.31
2023-10-29T00:18:20.019Z,99628.16
2023-10-29T00:19:21.723Z,99630.78
2023-10-29T00:20:23.464Z,99629.03
2023-10-29T00:21:25.188Z,99625.53
2023-10-29T00:22:28.308Z,99625.47
2023-10-29T00:23:29.978Z,99622.91
2023-10-29T00:24:31.997Z,99622.09
2023-10-29T00:25:33.647Z,99616.78
2023-10-29T00:26:35.637Z,99624.63
2023-10-29T00:27:37.405Z,99622.91
2023-10-29T00:28:39.033Z,99615.13
2023-10-29T00:29:42.715Z,99617.69
2023-10-29T00:30:45.010Z,99623.75
2023-10-29T00:31:46.693Z,99608.94
2023-10-29T00:32:48.525Z,99612.41
2023-10-29T00:33:50.990Z,99615.00
2023-10-29T00:34:52.765Z,99611.50
2023-10-29T00:35:55.341Z,99608.09
2023-10-29T00:36:57.415Z,99598.47
2023-10-29T00:37:59.708Z,99604.59
2023-10-29T00:39:01.369Z,99603.66
2023-10-29T00:40:06.351Z,99601.09
2023-10-29T00:41:09.597Z,99606.25
2023-10-29T00:42:12.343Z,99597.50
2023-10-29T00:43:15.659Z,99595.81
2023-10-29T00:44:17.339Z,99592.41
2023-10-29T00:45:21.887Z,99585.41
2023-10-29T00:46:25.386Z,99578.44
2023-10-29T00:47:27.215Z,99576.72
2023-10-29T00:48:29.227Z,99575.84
2023-10-29T00:49:31.252Z,99571.50
2023-10-29T00:50:32.862Z,99566.34
2023-10-29T00:51:34.573Z,99565.38
2023-10-29T00:52:37.156Z,99551.44
2023-10-29T00:53:38.890Z,99551.44
2023-10-29T00:54:40.696Z,99560.19
2023-10-29T00:55:42.700Z,99560.19
2023-10-29T00:56:44.646Z,99559.28
2023-10-29T00:57:46.560Z,99555.81
2023-10-29T00:58:48.714Z,99553.19
2023-10-29T00:59:51.954Z,99550.56
2023-10-29T01:00:55.148Z,99553.19
2023-10-29T01:01:58.062Z,99552.34
2023-10-29T01:03:04.179Z,99561.03
2023-10-29T01:04:06.293Z,99557.59
2023-10-29T01:05:08.086Z,99553.25
2023-10-29T01:06:11.297Z,99561.97
2023-10-29T01:07:12.953Z,99557.63
2023-10-29T01:08:15.485Z,99552.34
2023-10-29T01:09:18.380Z,99554.97
2023-10-29T01:10:20.188Z,99551.50
2023-10-29T01:11:21.911Z,99548.03
2023-10-29T01:12:26.100Z,99546.34
2023-10-29T01:13:27.713Z,99531.53
2023-10-29T01:14:29.483Z,99523.69
2023-10-29T01:15:31.224Z,99514.97
2023-10-29T01:16:32.891Z,99503.69
2023-10-29T01:17:37.380Z,99492.38
2023-10-29T01:18:39.312Z,99493.22
2023-10-29T01:19:40.998Z,99479.28
2023-10-29T01:20:43.100Z,99475.75
2023-10-29T01:21:44.793Z,99486.19
2023-10-29T01:22:47.616Z,99489.75
2023-10-29T01:23:49.408Z,99500.22
2023-10-29T01:24:51.210Z,99511.66
2023-10-29T01:25:56.965Z,99514.19
2023-10-29T01:26:58.990Z,99516.03
2023-10-29T01:28:01.080Z,99524.72
2023-10-29T01:29:02.846Z,99515.09
2023-10-29T01:30:06.612Z,99529.13
2023-10-29T01:31:08.619Z,99519.56
2023-10-29T01:32:10.352Z,99525.63
2023-10-29T01:33:12.053Z,99517.72
2023-10-29T01:34:13.906Z,99520.34
2023-10-29T01:35:16.230Z,99521.25
2023-10-29T01:36:17.930Z,99521.25
2023-10-29T01:37:19.646Z,99516.94
2023-10-29T01:38:21.429Z,99514.38
2023-10-29T01:39:23.425Z,99510.84
2023-10-29T01:40:25.095Z,99511.69
2023-10-29T01:41:26.745Z,99509.16
2023-10-29T01:42:28.452Z,99507.38
2023-10-29T01:43:30.050Z,99505.59
2023-10-29T01:44:32.023Z,99507.31
2023-10-29T01:45:33.912Z,99507.31
2023-10-29T01:46:35.763Z,99510.81
2023-10-29T01:47:37.748Z,99515.16
2023-10-29T01:48:39.707Z,99522.16
2023-10-29T01:49:41.460Z,99512.53
2023-10-29T01:50:45.664Z,99513.41
2023-10-29T01:51:47.304Z,99515.16
2023-10-29T01:52:49.976Z,99509.94
2023-10-29T01:53:51.563Z,99510.75
2023-10-29T01:54:53.194Z,99506.47
2023-10-29T01:55:54.841Z,99504.69
2023-10-29T01:56:56.520Z,99502.97
2023-10-29T01:57:58.483Z,99496.84
2023-10-29T01:59:00.340Z,99495.03
2023-10-29T02:00:02.194Z,99502.03
2023-10-29T02:01:13.472Z,99492.44
2023-10-29T02:02:15.143Z,99490.59
2023-10-29T02:03:16.976Z,99482.81
2023-10-29T02:04:18.698Z,99476.75
2023-10-29T02:05:20.808Z,99474.97
2023-10-29T02:06:22.559Z,99483.59
2023-10-29T02:07:24.203Z,99480.06
2023-10-29T02:08:26.008Z,99481.84
2023-10-29T02:09:29.216Z,99486.16
2023-10-29T02:10:31.551Z,99482.75
2023-10-29T02:11:33.296Z,99483.59
2023-10-29T02:12:35.066Z,99485.25
2023-10-29T02:13:36.670Z,99480.00
2023-10-29T02:14:40.968Z,99487.00
2023-10-29T02:15:42.588Z,99471.25
2023-10-29T02:16:44.390Z,99468.56
2023-10-29T02:17:47.029Z,99467.66
2023-10-29T02:18:51.058Z,99467.66
2023-10-29T02:19:53.112Z,99466.69
2023-10-29T02:20:54.821Z,99464.03
2023-10-29T02:21:58.834Z,99471.94
2023-10-29T02:23:00.802Z,99459.75
2023-10-29T02:24:02.666Z,99460.59
2023-10-29T02:25:04.727Z,99463.22
2023-10-29T02:26:06.428Z,99455.44
2023-10-29T02:27:08.412Z,99451.97
2023-10-29T02:28:12.801Z,99452.81
2023-10-29T02:29:15.791Z,99447.59
2023-10-29T02:30:18.158Z,99446.69
2023-10-29T02:31:23.092Z,99438.84
2023-10-29T02:32:26.901Z,99437.94
2023-10-29T02:33:28.704Z,99440.47
2023-10-29T02:34:30.581Z,99432.63
2023-10-29T02:35:32.216Z,99434.38
2023-10-29T02:36:34.045Z,99425.63
2023-10-29T02:37:36.089Z,99417.78
2023-10-29T02:38:38.511Z,99420.38
2023-10-29T02:39:41.226Z,99420.31
2023-10-29T02:40:42.872Z,99415.97
2023-10-29T02:41:44.692Z,99415.03
2023-10-29T02:42:47.065Z,99414.25
2023-10-29T02:43:48.733Z,99411.56
2023-10-29T02:44:50.759Z,99410.72
2023-10-29T02:45:52.432Z,99419.50
2023-10-29T02:46:54.356Z,99411.56
2023-10-29T02:47:56.060Z,99414.25
2023-10-29T02:48:58.223Z,99407.25
2023-10-29T02:49:59.920Z,99406.47
2023-10-29T02:51:01.621Z,99403.84
2023-10-29T02:52:03.495Z,99399.41
2023-10-29T02:53:05.465Z,99394.97
2023-10-29T02:54:07.177Z,99398.50
2023-10-29T02:55:08.959Z,99398.50
2023-10-29T02:56:11.284Z,99386.25
2023-10-29T02:57:14.706Z,99380.09
2023-10-29T02:58:16.388Z,99379.22
2023-10-29T02:59:18.063Z,99373.13
2023-10-29T03:00:19.777Z,99372.19
2023-10-29T03:01:22.107Z,99377.44
2023-10-29T03:02:24.488Z,99379.22
2023-10-29T03:03:26.234Z,99380.84
2023-10-29T03:04:27.900Z,99379.06
2023-10-29T03:05:31.680Z,99376.53
2023-10-29T03:06:40.039Z,99376.59
2023-10-29T03:07:41.703Z,99379.06
2023-10-29T03:08:43.663Z,99378.16
2023-10-29T03:09:46.441Z,99367.78
2023-10-29T03:10:50.927Z,99364.22
2023-10-29T03:11:52.744Z,99370.25
2023-10-29T03:12:55.323Z,99361.56
2023-10-29T03:13:59.013Z,99357.22
2023-10-29T03:15:01.927Z,99361.50
2023-10-29T03:16:04.367Z,99364.03
2023-10-29T03:17:05.978Z,99355.28
2023-10-29T03:18:10.371Z,99355.28
2023-10-29T03:19:12.100Z,99359.59
2023-10-29T03:20:16.209Z,99350.00
2023-10-29T03:21:18.408Z,99349.13
2023-10-29T03:22:20.822Z,99345.66
2023-10-29T03:23:22.774Z,99346.50
2023-10-29T03:24:25.343Z,99348.22
2023-10-29T03:25:27.087Z,99345.53
2023-10-29T03:26:28.715Z,99341.19
2023-10-29T03:27:30.544Z,99330.81
2023-10-29T03:28:32.152Z,99322.94
2023-10-29T03:29:35.080Z,99322.88
2023-10-29T03:30:37.090Z,99318.50
2023-10-29T03:31:39.571Z,99308.06
2023-10-29T03:32:41.458Z,99313.28
2023-10-29T03:33:43.756Z,99310.53
2023-10-29T03:34:45.633Z,99306.13
2023-10-29T03:35:47.341Z,99307.84
2023-10-29T03:36:49.059Z,99308.69
2023-10-29T03:37:50.703Z,99305.22
2023-10-29T03:38:52.297Z,99304.25
2023-10-29T03:39:53.917Z,99299.91
2023-10-29T03:40:55.634Z,99297.25
2023-10-29T03:41:57.447Z,99298.19
2023-10-29T03:42:59.556Z,99292.00
2023-10-29T03:44:01.289Z,99288.53
2023-10-29T03:45:04.447Z,99291.03
2023-10-29T03:46:11.536Z,99283.19
2023-10-29T03:47:13.223Z,99287.50
2023-10-29T03:48:16.500Z,99283.09
2023-10-29T03:49:19.429Z,99280.47
2023-10-29T03:50:21.498Z,99284.03
2023-10-29T03:51:26.353Z,99288.34
2023-10-29T03:52:27.974Z,99269.94
2023-10-29T03:53:29.654Z,99270.00
2023-10-29T03:54:31.323Z,99273.50
2023-10-29T03:55:34.216Z,99266.56
2023-10-29T03:56:36.002Z,99269.09
2023-10-29T03:57:37.744Z,99265.66
2023-10-29T03:58:39.553Z,99263.03
2023-10-29T03:59:41.606Z,99263.88
2023-10-29T04:00:43.254Z,99264.72
2023-10-29T04:01:45.066Z,99256.03
2023-10-29T04:02:46.863Z,99255.13
2023-10-29T04:03:48.926Z,99255.19
2023-10-29T04:04:57.713Z,99249.94
2023-10-29T04:06:11.425Z,99245.63
2023-10-29T04:07:13.184Z,99246.31
2023-10-29T04:08:17.974Z,99248.09
2023-10-29T04:09:20.242Z,99242.94
2023-10-29T04:10:21.905Z,99240.19
2023-10-29T04:11:23.585Z,99239.41
2023-10-29T04:12:31.179Z,99243.66
2023-10-29T04:13:33.317Z,99234.03
2023-10-29T04:14:36.177Z,99233.13
2023-10-29T04:15:37.867Z,99223.56
2023-10-29T04:16:41.791Z,99213.94
2023-10-29T04:17:43.952Z,99214.88
2023-10-29T04:18:46.113Z,99208.75
2023-10-29T04:19:47.682Z,99213.22
2023-10-29T04:20:49.829Z,99203.69
2023-10-29T04:21:51.656Z,99206.28
2023-10-29T04:22:53.308Z,99205.38
2023-10-29T04:23:55.117Z,99207.94
2023-10-29T04:24:56.794Z,99202.63
2023-10-29T04:25:58.413Z,99198.22
2023-10-29T04:27:00.292Z,99201.78
2023-10-29T04:28:01.904Z,99198.28
2023-10-29T04:29:03.526Z,99187.06
2023-10-29T04:30:06.039Z,99188.03
2023-10-29T04:31:08.039Z,99186.19
2023-10-29T04:32:09.926Z,99188.81
2023-10-29T04:33:11.914Z,99184.44
2023-10-29T04:34:14.546Z,99180.97
2023-10-29T04:35:16.193Z,99180.19
2023-10-29T04:36:21.433Z,99194.03
2023-10-29T04:37:25.665Z,99197.47
2023-10-29T04:38:27.292Z,99198.28
2023-10-29T04:39:31.144Z,99185.28
2023-10-29T04:40:32.809Z,99190.59
2023-10-29T04:41:34.541Z,99189.69
2023-10-29T04:42:36.305Z,99177.44
2023-10-29T04:43:37.931Z,99181.75
2023-10-29T04:44:39.665Z,99181.75
2023-10-29T04:45:41.303Z,99177.34
2023-10-29T04:46:43.144Z,99177.28
2023-10-29T04:47:45.562Z,99178.16
2023-10-29T04:48:47.259Z,99174.59
2023-10-29T04:49:51.408Z,99187.63
2023-10-29T04:50:53.064Z,99182.41
2023-10-29T04:51:54.773Z,99181.47
2023-10-29T04:52:56.397Z,99185.84
2023-10-29T04:53:58.160Z,99173.59
2023-10-29T04:55:01.807Z,99173.59
2023-10-29T04:56:04.444Z,99166.63
2023-10-29T04:57:06.038Z,99164.84
2023-10-29T04:58:07.744Z,99161.31
2023-10-29T04:59:09.484Z,99170.00
2023-10-29T05:00:11.714Z,99159.47
2023-10-29T05:01:14.657Z,99155.03
2023-10-29T05:02:19.664Z,99148.00
2023-10-29T05:03:21.532Z,99154.16
2023-10-29T05:04:23.487Z,99142.78
2023-10-29T05:05:25.260Z,99143.59
2023-10-29T05:06:26.865Z,99145.31
2023-10-29T05:07:28.534Z,99134.91
2023-10-29T05:08:30.340Z,99141.00
2023-10-29T05:09:31.956Z,99142.78
2023-10-29T05:10:33.734Z,99145.38
2023-10-29T05:11:36.842Z,99148.81
2023-10-29T05:12:38.493Z,99147.03
2023-10-29T05:13:40.849Z,99152.09
2023-10-29T05:14:42.526Z,99139.00
2023-10-29T05:15:44.366Z,99143.34
2023-10-29T05:16:46.091Z,99141.56
2023-10-29T05:17:47.798Z,99136.25
2023-10-29T05:18:49.690Z,99138.88
2023-10-29T05:19:51.321Z,99132.72
2023-10-29T05:20:53.004Z,99124.78
2023-10-29T05:21:54.762Z,99122.97
2023-10-29T05:22:56.513Z,99132.63
2023-10-29T05:23:58.189Z,99130.03
2023-10-29T05:24:59.972Z,99126.50
2023-10-29T05:26:01.584Z,99108.09
2023-10-29T05:27:04.252Z,99123.81
2023-10-29T05:28:06.470Z,99115.94
2023-10-29T05:29:08.069Z,99108.16
2023-10-29T05:30:10.866Z,99102.00
2023-10-29T05:31:12.546Z,99102.78
2023-10-29T05:32:14.211Z,99101.94
2023-10-29T05:33:15.940Z,99102.69
2023-10-29T05:34:17.694Z,99093.16
2023-10-29T05:35:19.583Z,99089.69
2023-10-29T05:36:21.654Z,99081.00
2023-10-29T05:37:23.404Z,99081.06
2023-10-29T05:38:24.992Z,99082.81
2023-10-29T05:39:26.622Z,99084.53
2023-10-29T05:40:28.234Z,99085.31
2023-10-29T05:41:29.998Z,99080.84
2023-10-29T05:42:32.892Z,99077.47
2023-10-29T05:43:35.576Z,99086.00
2023-10-29T05:44:37.180Z,99083.38
2023-10-29T05:45:38.784Z,99085.16
2023-10-29T05:46:40.875Z,99091.22
2023-10-29T05:47:43.112Z,99088.63
2023-10-29T05:48:44.904Z,99097.31
2023-10-29T05:49:46.590Z,99098.19
2023-10-29T05:50:48.378Z,99091.06
2023-10-29T05:51:51.018Z,99093.63
2023-10-29T05:52:52.749Z,99091.88
2023-10-29T05:53:54.815Z,99079.75
2023-10-29T05:54:57.148Z,99084.00
2023-10-29T05:55:59.009Z,99077.78
2023-10-29T05:57:00.744Z,99082.06
2023-10-29T05:58:02.410Z,99084.63
2023-10-29T05:59:05.623Z,99085.41
2023-10-29T06:00:08.571Z,99090.66
2023-10-29T06:01:19.045Z,99077.56
2023-10-29T06:02:20.830Z,99080.94
2023-10-29T06:03:22.475Z,99084.41
2023-10-29T06:04:26.073Z,99095.66
2023-10-29T06:05:28.361Z,99098.19
2023-10-29T06:06:31.844Z,99083.41
2023-10-29T06:07:33.496Z,99070.31
2023-10-29T06:08:35.717Z,99077.31
2023-10-29T06:09:37.403Z,99072.06
2023-10-29T06:10:39.025Z,99084.25
2023-10-29T06:11:43.895Z,99086.81
2023-10-29T06:12:46.791Z,99089.25
2023-10-29T06:13:49.198Z,99088.34
2023-10-29T06:14:51.487Z,99086.56
2023-10-29T06:15:53.243Z,99084.81
2023-10-29T06:17:03.748Z,99075.09
2023-10-29T06:18:10.955Z,99080.34
2023-10-29T06:19:12.689Z,99083.03
2023-10-29T06:20:19.032Z,99084.75
2023-10-29T06:21:22.001Z,99084.75
2023-10-29T06:22:23.818Z,99080.25
2023-10-29T06:23:25.494Z,99085.41
2023-10-29T06:24:27.140Z,99088.91
2023-10-29T06:25:28.821Z,99093.16
2023-10-29T06:26:30.567Z,99091.28
2023-10-29T06:27:32.497Z,99089.59
2023-10-29T06:28:34.333Z,99082.50
2023-10-29T06:29:40.759Z,99093.00
2023-10-29T06:30:42.508Z,99087.66
2023-10-29T06:31:44.336Z,99082.34
2023-10-29T06:32:46.825Z,99076.19
2023-10-29T06:33:48.891Z,99084.91
2023-10-29T06:34:51.031Z,99087.44
2023-10-29T06:35:52.976Z,99087.44
2023-10-29T06:36:57.430Z,99083.06
2023-10-29T06:37:59.070Z,99086.44
2023-10-29T06:39:00.898Z,99084.69
2023-10-29T06:40:04.385Z,99080.28
2023-10-29T06:41:06.008Z,99074.13
2023-10-29T06:42:07.853Z,99075.78
2023-10-29T06:43:10.042Z,99074.88
2023-10-29T06:44:11.704Z,99072.25
2023-10-29T06:45:15.246Z,99074.72
2023-10-29T06:46:17.491Z,99074.63
2023-10-29T06:47:19.496Z,99070.19
2023-10-29T06:48:21.486Z,99070.19
2023-10-29T06:49:23.230Z,99071.88
2023-10-29T06:50:24.982Z,99072.63
2023-10-29T06:51:26.593Z,99071.72
2023-10-29T06:52:28.384Z,99072.56
2023-10-29T06:53:32.090Z,99070.72
2023-10-29T06:54:33.903Z,99073.25
2023-10-29T06:55:38.554Z,99068.78
2023-10-29T06:56:40.275Z,99071.41
2023-10-29T06:57:42.032Z,99067.84
2023-10-29T06:58:43.928Z,99064.31
2023-10-29T06:59:46.099Z,99064.31
2023-10-29T07:00:47.741Z,99064.25
2023-10-29T07:01:51.473Z,99065.06
2023-10-29T07:02:53.682Z,99062.38
2023-10-29T07:03:55.788Z,99065.84
2023-10-29T07:04:59.633Z,99068.47
2023-10-29T07:06:07.154Z,99067.56
2023-10-29T07:07:09.159Z,99071.94
2023-10-29T07:08:11.676Z,99076.25
2023-10-29T07:09:16.373Z,99078.81
2023-10-29T07:10:18.037Z,99080.50
2023-10-29T07:11:20.425Z,99083.03
2023-10-29T07:12:22.120Z,99076.03
2023-10-29T07:13:23.831Z,99083.81
2023-10-29T07:14:25.593Z,99080.25
2023-10-29T07:15:27.193Z,99076.72
2023-10-29T07:16:29.026Z,99073.19
2023-10-29T07:17:30.820Z,99073.09
2023-10-29T07:18:32.783Z,99079.25
2023-10-29T07:19:34.720Z,99075.66
2023-10-29T07:20:36.922Z,99068.56
2023-10-29T07:21:39.240Z,99062.41
2023-10-29T07:22:40.896Z,99066.81
2023-10-29T07:23:42.694Z,99069.44
2023-10-29T07:24:44.483Z,99063.31
2023-10-29T07:25:46.591Z,99062.31
2023-10-29T07:26:48.415Z,99079.75
2023-10-29T07:27:50.223Z,99073.63
2023-10-29T07:28:51.800Z,99072.63
2023-10-29T07:29:53.562Z,99076.03
2023-10-29T07:30:56.743Z,99076.88
2023-10-29T07:31:58.555Z,99080.19
2023-10-29T07:33:00.585Z,99076.72
2023-10-29T07:34:02.289Z,99069.63
2023-10-29T07:35:04.492Z,99069.63
2023-10-29T07:36:06.592Z,99079.13
2023-10-29T07:37:11.401Z,99093.91
2023-10-29T07:38:13.699Z,99088.66
2023-10-29T07:39:15.868Z,99072.91
2023-10-29T07:40:17.682Z,99076.31
2023-10-29T07:41:20.542Z,99066.59
2023-10-29T07:42:22.399Z,99077.06
2023-10-29T07:43:24.630Z,99070.81
2023-10-29T07:44:26.292Z,99073.44
2023-10-29T07:45:27.909Z,99065.56
2023-10-29T07:46:29.830Z,99061.13
2023-10-29T07:47:33.051Z,99060.16
2023-10-29T07:48:35.503Z,99074.06
2023-10-29T07:49:38.694Z,99076.59
2023-10-29T07:50:40.568Z,99073.97
2023-10-29T07:51:42.684Z,99072.09
2023-10-29T07:52:44.465Z,99068.56
2023-10-29T07:53:46.286Z,99074.69
2023-10-29T07:54:48.148Z,99074.69
2023-10-29T07:55:50.071Z,99070.25
2023-10-29T07:56:51.775Z,99075.44
2023-10-29T07:57:53.695Z,99071.78
2023-10-29T07:58:56.601Z,99077.88
2023-10-29T07:59:58.804Z,99082.19
2023-10-29T08:01:00.669Z,99072.47
2023-10-29T08:02:02.437Z,99062.81
2023-10-29T08:03:04.323Z,99074.94
2023-10-29T08:04:06.280Z,99069.59
2023-10-29T08:05:08.678Z,99064.28
2023-10-29T08:06:12.108Z,99065.03
2023-10-29T08:07:13.728Z,99055.31
2023-10-29T08:08:15.586Z,99049.97
2023-10-29T08:09:18.080Z,99036.84
2023-10-29T08:10:20.230Z,99041.00
2023-10-29T08:11:22.987Z,99032.28
2023-10-29T08:12:25.593Z,99027.78
2023-10-29T08:13:27.236Z,99032.19
2023-10-29T08:14:29.561Z,99035.56
2023-10-29T08:15:31.254Z,99042.63
2023-10-29T08:16:32.913Z,99048.63
2023-10-29T08:17:38.114Z,99048.63
2023-10-29T08:18:40.394Z,99046.84
2023-10-29T08:19:42.055Z,99048.53
2023-10-29T08:20:44.252Z,99050.22
2023-10-29T08:21:46.169Z,99045.91
2023-10-29T08:22:47.794Z,99039.81
2023-10-29T08:23:49.850Z,99032.78
2023-10-29T08:24:51.961Z,99037.19
2023-10-29T08:25:53.939Z,99037.94
2023-10-29T08:26:55.877Z,99043.03
2023-10-29T08:27:57.569Z,99046.41
2023-10-29T08:28:59.622Z,99041.06
2023-10-29T08:30:01.314Z,99048.03
2023-10-29T08:31:03.317Z,99048.88
2023-10-29T08:32:05.914Z,99051.41
2023-10-29T08:33:07.592Z,99050.47
2023-10-29T08:34:09.938Z,99050.38
2023-10-29T08:35:11.613Z,99051.16
2023-10-29T08:36:16.316Z,99052.88
2023-10-29T08:37:23.030Z,99059.88
2023-10-29T08:38:25.557Z,99067.59
2023-10-29T08:39:27.760Z,99063.28
2023-10-29T08:40:29.562Z,99067.44
2023-10-29T08:41:31.204Z,99065.56
2023-10-29T08:42:34.042Z,99062.84
2023-10-29T08:43:35.710Z,99078.38
2023-10-29T08:44:37.339Z,99078.19
2023-10-29T08:45:42.717Z,99077.00
2023-10-29T08:46:44.940Z,99067.22
2023-10-29T08:47:46.698Z,99076.63
2023-10-29T08:48:48.859Z,99076.41
2023-10-29T08:49:51.874Z,99085.78
2023-10-29T08:50:53.555Z,99074.34
2023-10-29T08:51:55.617Z,99088.25
2023-10-29T08:52:57.957Z,99088.06
2023-10-29T08:54:00.619Z,99087.06
2023-10-29T08:55:02.646Z,99079.00
2023-10-29T08:56:04.946Z,99079.59
2023-10-29T08:57:07.095Z,99079.31
2023-10-29T08:58:10.770Z,99073.69
2023-10-29T08:59:12.438Z,99067.22
2023-10-29T09:00:17.530Z,99065.13
2023-10-29T09:01:19.396Z,99071.72
2023-10-29T09:02:21.195Z,99076.72
2023-10-29T09:03:22.926Z,99062.44
2023-10-29T09:04:24.804Z,99073.53
2023-10-29T09:05:26.641Z,99072.50
2023-10-29T09:06:29.787Z,99062.66
2023-10-29T09:07:31.784Z,99067.81
2023-10-29T09:08:35.025Z,99073.81
2023-10-29T09:09:38.724Z,99071.97
2023-10-29T09:10:43.989Z,99070.16
2023-10-29T09:11:47.913Z,99062.09
2023-10-29T09:12:49.746Z,99067.28
2023-10-29T09:13:54.676Z,99061.06
2023-10-29T09:14:56.741Z,99063.59
2023-10-29T09:15:59.330Z,99063.53
2023-10-29T09:17:01.096Z,99069.53
2023-10-29T09:18:02.946Z,99065.88
2023-10-29T09:19:07.023Z,99065.78
2023-10-29T09:20:09.361Z,99055.16
2023-10-29T09:21:11.007Z,99070.00
2023-10-29T09:22:12.655Z,99067.28
2023-10-29T09:23:15.856Z,99074.16
2023-10-29T09:24:17.862Z,99070.50
2023-10-29T09:25:20.644Z,99071.22
2023-10-29T09:26:22.382Z,99073.66
2023-10-29T09:27:24.156Z,99078.66
2023-10-29T09:28:27.612Z,99084.56
2023-10-29T09:29:32.233Z,99082.72
2023-10-29T09:30:33.988Z,99092.13
2023-10-29T09:31:35.759Z,99098.03
2023-10-29T09:32:37.500Z,99109.47
2023-10-29T09:33:40.408Z,99097.19
2023-10-29T09:34:42.271Z,99090.88
2023-10-29T09:35:43.915Z,99077.72
2023-10-29T09:36:45.762Z,99087.22
2023-10-29T09:37:47.581Z,99093.31
2023-10-29T09:38:49.765Z,99098.41
2023-10-29T09:39:51.504Z,99100.94
2023-10-29T09:40:56.985Z,99099.06
2023-10-29T09:42:09.985Z,99097.06
2023-10-29T09:43:14.521Z,99095.94
2023-10-29T09:44:19.489Z,99106.22
2023-10-29T09:45:26.627Z,99107.72
2023-10-29T09:46:31.587Z,99111.81
2023-10-29T09:47:33.218Z,99114.19
2023-10-29T09:48:35.809Z,99119.25
2023-10-29T09:49:39.213Z,99116.41
2023-10-29T09:50:44.687Z,99106.66
2023-10-29T09:51:46.831Z,99108.16
2023-10-29T09:52:54.241Z,99105.50
2023-10-29T09:53:59.389Z,99108.16
2023-10-29T09:55:02.287Z,99097.50
2023-10-29T09:56:08.530Z,99094.88
2023-10-29T09:57:10.311Z,99093.06
2023-10-29T09:58:12.142Z,99100.03
2023-10-29T09:59:13.775Z,99100.88
2023-10-29T10:00:19.771Z,99091.09
2023-10-29T10:01:21.971Z,99091.09
2023-10-29T10:02:24.711Z,99096.28
2023-10-29T10:03:27.677Z,99096.28
2023-10-29T10:04:29.782Z,99104.19
2023-10-29T10:05:31.604Z,99110.38
2023-10-29T10:06:35.738Z,99108.78
2023-10-29T10:07:39.571Z,99114.06
2023-10-29T10:08:41.264Z,99122.06
2023-10-29T10:09:56.019Z,99102.88
2023-10-29T10:10:58.488Z,99111.63
2023-10-29T10:12:07.919Z,99103.72
2023-10-29T10:13:10.753Z,99108.16
2023-10-29T10:14:28.590Z,99113.41
2023-10-29T10:15:32.121Z,99104.53
2023-10-29T10:16:35.167Z,99100.03
2023-10-29T10:17:36.903Z,99107.13
2023-10-29T10:18:54.946Z,99103.50
2023-10-29T10:20:10.853Z,99105.31
2023-10-29T10:21:12.630Z,99103.41
2023-10-29T10:22:34.563Z,99120.09
2023-10-29T10:23:56.579Z,99115.66
2023-10-29T10:24:59.526Z,99116.41
2023-10-29T10:26:01.439Z,99110.09
2023-10-29T10:27:03.817Z,99110.97
2023-10-29T10:28:06.204Z,99117.84
2023-10-29T10:29:09.466Z,99110.78
2023-10-29T10:30:26.091Z,99111.44
2023-10-29T10:31:35.446Z,99112.16
2023-10-29T10:32:37.412Z,99106.69
2023-10-29T10:33:39.040Z,99115.16
2023-10-29T10:34:52.215Z,99112.22
2023-10-29T10:35:56.044Z,99112.97
2023-10-29T10:37:01.844Z,99115.50
2023-10-29T10:38:04.748Z,99113.50
2023-10-29T10:39:06.585Z,99123.00
2023-10-29T10:40:23.681Z,99113.44
2023-10-29T10:41:25.660Z,99121.97
2023-10-29T10:42:27.326Z,99124.50
2023-10-29T10:43:29.664Z,99120.09
2023-10-29T10:44:32.428Z,99124.31
2023-10-29T10:45:35.108Z,99117.06
2023-10-29T10:46:38.567Z,99126.44
2023-10-29T10:47:40.689Z,99125.63
2023-10-29T10:48:43.490Z,99136.06
2023-10-29T10:49:47.616Z,99142.06
2023-10-29T10:50:52.051Z,99141.22
2023-10-29T10:51:56.378Z,99138.50
2023-10-29T10:52:58.876Z,99143.75
2023-10-29T10:54:03.405Z,99152.41
2023-10-29T10:55:05.928Z,99151.38
2023-10-29T10:56:09.701Z,99145.25
2023-10-29T10:57:11.836Z,99152.22
2023-10-29T10:58:16.574Z,99156.53
2023-10-29T10:59:22.093Z,99160.03
2023-10-29T11:00:23.841Z,99162.69
2023-10-29T11:01:26.896Z,99165.22
2023-10-29T11:02:29.201Z,99157.31
2023-10-29T11:03:34.628Z,99154.66
2023-10-29T11:04:40.136Z,99163.41
2023-10-29T11:05:42.744Z,99167.75
2023-10-29T11:06:45.104Z,99165.94
2023-10-29T11:07:47.775Z,99161.63
2023-10-29T11:08:50.128Z,99175.66
2023-10-29T11:09:53.892Z,99175.75
2023-10-29T11:10:58.403Z,99179.91
2023-10-29T11:12:00.825Z,99185.06
2023-10-29T11:13:21.007Z,99176.38
2023-10-29T11:14:25.269Z,99166.81
2023-10-29T11:15:27.166Z,99171.97
2023-10-29T11:16:28.842Z,99171.97
2023-10-29T11:17:49.773Z,99168.59
2023-10-29T11:18:51.788Z,99168.78
2023-10-29T11:19:53.612Z,99169.81
2023-10-29T11:20:57.331Z,99162.69
2023-10-29T11:22:20.878Z,99173.22
2023-10-29T11:23:27.489Z,99174.94
2023-10-29T11:24:29.529Z,99167.84
2023-10-29T11:25:31.799Z,99167.00
2023-10-29T11:26:34.694Z,99167.00
2023-10-29T11:27:42.010Z,99160.66
2023-10-29T11:28:46.995Z,99172.09
2023-10-29T11:29:48.802Z,99175.34
2023-10-29T11:31:19.641Z,99166.38
2023-10-29T11:32:31.379Z,99165.34
2023-10-29T11:33:33.650Z,99161.47
2023-10-29T11:34:35.564Z,99169.94
2023-10-29T11:35:38.962Z,99169.72
2023-10-29T11:36:42.921Z,99175.66
2023-10-29T11:37:45.516Z,99174.56
2023-10-29T11:38:47.324Z,99174.47
2023-10-29T11:39:49.359Z,99183.16
2023-10-29T11:40:51.281Z,99173.31
2023-10-29T11:41:53.648Z,99188.97
2023-10-29T11:43:00.215Z,99180.09
2023-10-29T11:44:30.352Z,99184.44
2023-10-29T11:45:33.271Z,99183.59
2023-10-29T11:47:02.905Z,99188.00
2023-10-29T11:48:08.001Z,99190.63
2023-10-29T11:49:10.402Z,99182.66
2023-10-29T11:50:12.907Z,99189.59
2023-10-29T11:51:14.740Z,99191.28
2023-10-29T11:52:16.863Z,99178.81
2023-10-29T11:53:25.985Z,99174.41
2023-10-29T11:54:27.743Z,99178.75
2023-10-29T11:55:42.272Z,99176.94
2023-10-29T11:56:46.597Z,99171.78
2023-10-29T11:57:49.309Z,99171.66
2023-10-29T11:59:03.701Z,99161.09
2023-10-29T12:00:06.126Z,99161.22
2023-10-29T12:01:08.132Z,99159.63
2023-10-29T12:02:12.321Z,99146.22
2023-10-29T12:03:20.037Z,99153.19
2023-10-29T12:04:22.206Z,99152.97
2023-10-29T12:05:24.372Z,99160.78
2023-10-29T12:06:44.384Z,99158.91
2023-10-29T12:07:46.766Z,99154.56
2023-10-29T12:08:48.648Z,99160.50
2023-10-29T12:10:00.533Z,99165.78
2023-10-29T12:11:02.232Z,99163.03
2023-10-29T12:12:10.566Z,99165.56
2023-10-29T12:13:12.302Z,99168.22
2023-10-29T12:14:14.210Z,99169.03
2023-10-29T12:15:17.753Z,99182.25
2023-10-29T12:16:21.654Z,99177.81
2023-10-29T12:17:23.545Z,99177.91
2023-10-29T12:18:26.470Z,99178.75
2023-10-29T12:19:37.636Z,99176.84
2023-10-29T12:20:39.596Z,99181.31